TimeEDT,TemperatureF,Dew PointF,Humidity,Sea Level PressureIn,VisibilityMPH,Wind Direction,Wind SpeedMPH,Gust SpeedMPH,PrecipitationIn,Events,Conditions,WindDirDegrees,DateUTC
12:55 AM,59.7,50.4,71,30.13,10.0,SSW,4.6,-,N/A,,Clear,200,2012-10-05 04:55:00
1:55 AM,59.0,50.4,73,30.13,10.0,SSW,5.8,-,N/A,,Partly Cloudy,200,2012-10-05 05:55:00
2:55 AM,59.7,50.7,72,30.11,10.0,South,6.9,-,N/A,,Clear,190,2012-10-05 06:55:00
3:55 AM,58.6,50.7,75,30.11,10.0,SSW,3.5,-,N/A,,Clear,210,2012-10-05 07:55:00
4:55 AM,57.9,50.5,76,30.11,10.0,SW,3.5,-,N/A,,Partly Cloudy,230,2012-10-05 08:55:00
5:55 AM,56.7,50.7,80,30.12,10.0,Calm,Calm,-,N/A,,Partly Cloudy,0,2012-10-05 09:55:00
6:55 AM,57.2,50.9,79,30.12,10.0,Calm,Calm,-,N/A,,Partly Cloudy,0,2012-10-05 10:55:00
7:42 AM,59.0,51.8,77,30.14,10.0,WSW,3.5,-,N/A,,Mostly Cloudy,250,2012-10-05 11:42:00
7:45 AM,59.0,51.8,77,30.14,10.0,WSW,3.5,-,N/A,,Mostly Cloudy,250,2012-10-05 11:45:00
7:55 AM,58.5,52.2,80,30.14,10.0,WSW,4.6,-,N/A,,Mostly Cloudy,240,2012-10-05 11:55:00
8:55 AM,59.7,51.8,75,30.12,10.0,NW,4.6,-,N/A,,Scattered Clouds,310,2012-10-05 12:55:00
9:55 AM,61.2,50.2,67,30.11,10.0,Calm,Calm,-,N/A,,Scattered Clouds,0,2012-10-05 13:55:00
10:55 AM,64.0,50.5,61,30.11,10.0,NNW,4.6,-,N/A,,Mostly Cloudy,330,2012-10-05 14:55:00
11:55 AM,65.7,50.2,57,30.11,10.0,SW,4.6,-,N/A,,Mostly Cloudy,220,2012-10-05 15:55:00
12:55 PM,66.2,50.4,57,30.11,10.0,West,4.6,-,N/A,,Overcast,280,2012-10-05 16:55:00
1:55 PM,68.4,51.6,55,30.07,10.0,SW,5.8,-,N/A,,Overcast,230,2012-10-05 17:55:00
2:00 PM,69.8,51.8,53,30.06,10.0,SW,10.4,-,N/A,,Overcast,230,2012-10-05 18:00:00
2:55 PM,70.3,50.7,50,30.03,10.0,SSW,9.2,-,N/A,,Overcast,210,2012-10-05 18:55:00
3:55 PM,70.2,51.8,52,30.00,10.0,Variable,5.8,-,N/A,,Mostly Cloudy,0,2012-10-05 19:55:00
4:48 PM,62.6,48.2,59,30.01,10.0,NW,18.4,-,N/A,,Mostly Cloudy,320,2012-10-05 20:48:00
4:55 PM,60.4,48.4,64,30.01,10.0,NNW,17.3,-,N/A,,Mostly Cloudy,330,2012-10-05 20:55:00
5:25 PM,55.4,46.4,72,30.03,10.0,NNW,11.5,-,N/A,,Overcast,330,2012-10-05 21:25:00
5:31 PM,55.4,46.4,72,30.03,10.0,NW,12.7,-,N/A,Rain,Light Rain,320,2012-10-05 21:31:00
5:55 PM,53.6,47.5,80,30.02,10.0,North,9.2,-,0.00,Rain,Light Rain,350,2012-10-05 21:55:00
6:01 PM,53.6,46.4,77,30.02,10.0,NNW,9.2,-,N/A,Rain,Light Rain,330,2012-10-05 22:01:00
6:05 PM,53.6,48.2,82,30.02,10.0,North,8.1,-,N/A,,Mostly Cloudy,350,2012-10-05 22:05:00
6:09 PM,53.6,48.2,82,30.02,10.0,North,10.4,-,N/A,,Mostly Cloudy,360,2012-10-05 22:09:00
6:15 PM,53.6,46.4,77,30.01,10.0,North,10.4,-,N/A,Rain,Light Rain,360,2012-10-05 22:15:00
6:27 PM,51.8,46.4,82,30.03,10.0,NW,11.5,-,N/A,Rain,Light Rain,310,2012-10-05 22:27:00
6:39 PM,51.8,46.4,82,30.00,10.0,North,6.9,-,N/A,Rain,Light Rain,350,2012-10-05 22:39:00
6:52 PM,51.8,46.4,82,30.00,10.0,NNW,9.2,-,N/A,Rain,Light Rain,330,2012-10-05 22:52:00
6:56 PM,51.4,46.4,83,30.00,10.0,NW,10.4,-,0.01,Rain,Light Rain,320,2012-10-05 22:56:00
7:03 PM,51.8,46.4,82,30.01,10.0,NNW,10.4,-,N/A,,Mostly Cloudy,330,2012-10-05 23:03:00
7:09 PM,51.8,46.4,82,30.01,10.0,NW,8.1,-,N/A,,Overcast,320,2012-10-05 23:09:00
7:32 PM,50.0,44.6,82,30.02,10.0,NNW,13.8,18.4,N/A,Rain,Light Rain,330,2012-10-05 23:32:00
7:39 PM,50.0,44.6,82,30.02,10.0,NNW,13.8,-,N/A,Rain,Light Rain,330,2012-10-05 23:39:00
7:44 PM,50.0,44.6,82,30.04,10.0,NNW,12.7,-,N/A,Rain,Light Rain,330,2012-10-05 23:44:00
7:55 PM,50.0,44.4,81,30.04,10.0,NW,12.7,-,0.00,Rain,Light Rain,320,2012-10-05 23:55:00
8:06 PM,50.0,44.6,82,30.04,10.0,NNW,12.7,-,N/A,Rain,Light Rain,330,2012-10-06 00:06:00
8:15 PM,48.2,42.8,82,30.03,10.0,NW,12.7,-,N/A,Rain,Light Rain,320,2012-10-06 00:15:00
8:35 PM,48.2,41.0,76,30.04,10.0,NNW,12.7,-,N/A,Rain,Light Rain,330,2012-10-06 00:35:00
8:42 PM,48.2,41.0,76,30.05,10.0,NNW,10.4,-,N/A,Rain,Light Rain,330,2012-10-06 00:42:00
8:55 PM,47.5,41.7,80,30.05,7.0,NW,11.5,-,0.02,Rain,Rain,320,2012-10-06 00:55:00
9:04 PM,46.4,41.0,81,30.04,7.0,NNW,10.4,-,N/A,Rain,Rain,340,2012-10-06 01:04:00
9:14 PM,46.4,41.0,81,30.05,7.0,NNW,11.5,-,N/A,Rain,Light Rain,330,2012-10-06 01:14:00
9:26 PM,46.4,42.8,87,30.04,7.0,NNW,12.7,-,N/A,Rain,Rain,330,2012-10-06 01:26:00
9:37 PM,46.4,41.0,81,30.04,10.0,NNW,16.1,-,N/A,Rain,Light Rain,330,2012-10-06 01:37:00
9:45 PM,46.4,41.0,81,30.03,10.0,NNW,16.1,-,N/A,Rain,Light Rain,340,2012-10-06 01:45:00
9:55 PM,45.7,40.6,83,30.04,10.0,NNW,11.5,-,0.07,,Light Drizzle,330,2012-10-06 01:55:00
9:57 PM,46.4,41.0,81,30.04,10.0,NNW,10.4,-,N/A,,Light Drizzle,330,2012-10-06 01:57:00
10:13 PM,46.4,41.0,81,30.02,10.0,North,13.8,-,N/A,Rain,Light Rain,360,2012-10-06 02:13:00
10:38 PM,44.6,41.0,87,30.03,10.0,NNW,10.4,-,N/A,Rain,Light Rain,330,2012-10-06 02:38:00
10:55 PM,45.1,40.5,84,30.02,6.0,NW,6.9,-,0.04,Rain,Rain,310,2012-10-06 02:55:00
11:41 PM,44.6,41.0,87,30.02,7.0,NW,12.7,-,N/A,Rain,Light Rain,320,2012-10-06 03:41:00
11:55 PM,44.2,39.4,83,30.04,8.0,NW,15.0,-,0.07,Rain,Light Rain,310,2012-10-06 03:55:00